Time;durP1;ratioP1;P1;durP2;ratioP2;P2;SDS_P1;SDS_P2;PMS_P1;PMS_P2;Temp;Humidity;BMP_temperature;BMP_pressure;BME280_temperature;BME280_humidity;BME280_pressure;Samples;Min_cycle;Max_cycle;Signal;HPM_P1;HPM_P2
2022/05/26 00:02:28;;;;;;;3.08;2.80;;;;;;;13.81;60.68;100470.69;10444598;28;20045;-78
2022/05/26 00:07:31;;;;;;;4.88;3.00;;;;;;;14.14;59.91;100461.25;10430075;28;20498;-78
2022/05/26 00:12:36;;;;;;;4.35;2.78;;;;;;;14.10;59.49;100464.44;10433511;28;20049;-78
2022/05/26 00:17:39;;;;;;;7.95;3.10;;;;;;;13.70;60.82;100450.09;10432640;28;20049;-77
2022/05/26 00:22:41;;;;;;;6.40;3.25;;;;;;;13.97;60.05;100453.06;10445317;28;20413;-78
2022/05/26 00:27:46;;;;;;;3.35;3.05;;;;;;;13.77;60.88;100446.81;10429976;28;20048;-78
2022/05/26 00:32:49;;;;;;;4.90;2.80;;;;;;;13.89;60.66;100442.97;10437751;28;20053;-78
2022/05/26 00:37:52;;;;;;;3.83;2.50;;;;;;;13.70;61.49;100447.41;10436411;28;20551;-77
2022/05/26 00:42:57;;;;;;;5.45;2.42;;;;;;;13.93;60.72;100450.66;10415928;28;20049;-78
2022/05/26 00:48:01;;;;;;;4.28;2.90;;;;;;;14.01;61.16;100449.06;10415125;28;20052;-78
2022/05/26 00:53:15;;;;;;;4.82;2.80;;;;;;;13.72;62.32;100444.56;10414515;28;20053;-78
2022/05/26 00:58:23;;;;;;;6.75;1.92;;;;;;;13.47;63.79;100452.25;10436256;28;20041;-78
2022/05/26 01:03:31;;;;;;;4.43;1.95;;;;;;;13.23;65.47;100449.91;10438245;28;20041;-78
2022/05/26 01:08:38;;;;;;;2.30;2.10;;;;;;;13.11;65.65;100463.66;10437222;28;20053;-78
2022/05/26 01:13:47;;;;;;;4.28;3.03;;;;;;;13.22;65.81;100448.22;10420195;28;20042;-78
2022/05/26 01:19:00;;;;;;;5.63;2.97;;;;;;;13.27;65.75;100440.56;10430316;28;20053;-78
2022/05/26 01:24:32;;;;;;;9.88;2.95;;;;;;;13.47;64.88;100443.31;10428917;28;20045;-78
2022/05/26 01:30:12;;;;;;;5.78;3.63;;;;;;;13.94;63.05;100443.41;10425735;28;20049;-77
2022/05/26 01:35:24;;;;;;;5.15;3.55;;;;;;;13.58;63.66;100442.31;10437464;28;20049;-78
2022/05/26 01:40:33;;;;;;;6.53;4.25;;;;;;;13.78;63.10;100433.19;10427098;28;20491;-77
2022/05/26 01:45:51;;;;;;;5.47;3.97;;;;;;;13.64;63.26;100441.75;10440486;28;20068;-77
2022/05/26 01:51:01;;;;;;;10.30;5.38;;;;;;;13.94;62.09;100430.75;10427842;28;20502;-78
2022/05/26 01:56:16;;;;;;;8.07;4.03;;;;;;;13.89;62.09;100424.94;10423691;28;20115;-78
2022/05/26 02:01:25;;;;;;;6.82;4.90;;;;;;;13.82;62.23;100437.31;10447641;28;20104;-77
2022/05/26 02:06:33;;;;;;;6.47;5.65;;;;;;;14.21;61.73;100439.09;10440362;28;20045;-78
2022/05/26 02:11:42;;;;;;;8.07;4.82;;;;;;;13.78;62.95;100446.69;10412125;28;20037;-78
2022/05/26 02:16:49;;;;;;;6.43;3.85;;;;;;;14.01;62.09;100443.66;10453524;28;20044;-78
2022/05/26 02:22:01;;;;;;;6.43;3.92;;;;;;;13.98;62.10;100447.50;10459235;28;20105;-78
2022/05/26 02:27:05;;;;;;;8.18;5.07;;;;;;;13.77;62.65;100458.50;10430978;28;20045;-78
2022/05/26 02:32:11;;;;;;;6.40;4.43;;;;;;;13.92;62.87;100459.75;10439167;28;20123;-78
2022/05/26 02:37:16;;;;;;;9.57;5.50;;;;;;;14.03;62.84;100455.19;10435790;28;20045;-78
2022/05/26 02:42:20;;;;;;;11.88;6.10;;;;;;;13.37;65.19;100464.88;10446596;28;20133;-77
2022/05/26 02:47:41;;;;;;;7.20;6.50;;;;;;;13.72;65.15;100455.38;10418364;28;20045;-78
2022/05/26 02:52:56;;;;;;;8.45;6.25;;;;;;;13.50;66.28;100470.00;10418511;28;20061;-77
2022/05/26 02:58:07;;;;;;;6.10;5.50;;;;;;;13.61;66.34;100491.44;10418024;28;20053;-78
2022/05/26 03:03:15;;;;;;;6.28;5.47;;;;;;;13.29;69.12;100480.88;10440326;28;20042;-77
2022/05/26 03:08:22;;;;;;;7.55;6.40;;;;;;;13.26;71.29;100484.69;10438411;28;20088;-78
2022/05/26 03:13:26;;;;;;;5.95;5.40;;;;;;;12.95;72.03;100481.22;10429233;28;20083;-78
2022/05/26 03:18:30;;;;;;;7.85;6.20;;;;;;;13.26;71.12;100492.78;10433461;28;20052;-78
2022/05/26 03:23:36;;;;;;;4.97;4.53;;;;;;;13.31;70.71;100489.69;10447332;28;20041;-78
2022/05/26 03:28:39;;;;;;;8.88;6.70;;;;;;;13.26;72.04;100482.00;10452180;28;20083;-78
2022/05/26 03:44:27;;;;;;;12.50;6.95;;;;;;;13.05;73.70;100506.41;10443533;28;20051;-77
2022/05/26 03:49:30;;;;;;;9.10;7.72;;;;;;;13.36;72.68;100500.91;10432375;28;20045;-78
2022/05/26 03:54:34;;;;;;;12.85;8.88;;;;;;;13.02;73.86;100503.09;10425821;28;20042;-78
2022/05/26 03:59:40;;;;;;;12.52;10.80;;;;;;;13.01;73.80;100504.94;10440400;28;20050;-77
2022/05/26 04:04:44;;;;;;;14.60;11.05;;;;;;;13.63;71.70;100510.19;10415867;28;20096;-77
2022/05/26 04:09:48;;;;;;;13.95;12.55;;;;;;;13.53;72.12;100517.44;10456996;22;20048;-81
2022/05/26 04:14:52;;;;;;;13.23;9.20;;;;;;;13.08;73.44;100526.81;10444715;28;20068;-76
2022/05/26 04:19:54;;;;;;;16.60;11.90;;;;;;;13.14;73.41;100522.75;10444359;28;20065;-77
2022/05/26 04:24:59;;;;;;;;;;;;;;;13.36;72.45;100536.00;10452463;28;20037;-79
2022/05/26 04:30:03;;;;;;;13.45;11.23;;;;;;;12.91;74.29;100541.81;10441766;28;19921;-77
2022/05/26 04:35:07;;;;;;;18.45;14.18;;;;;;;13.11;74.04;100545.44;10440796;28;20076;-77
2022/05/26 04:40:13;;;;;;;15.48;10.73;;;;;;;13.11;73.98;100553.53;10447519;28;20056;-80
2022/05/26 04:45:15;;;;;;;17.23;10.38;;;;;;;13.29;72.94;100551.00;10446861;28;20037;-81
2022/05/26 04:50:18;;;;;;;;;;;;;;;12.92;73.94;100542.69;10438617;28;20046;-78
2022/05/26 04:55:23;;;;;;;16.63;11.57;;;;;;;13.06;74.47;100547.69;10426893;28;19924;-79
2022/05/26 05:00:26;;;;;;;14.70;10.65;;;;;;;13.28;73.91;100558.25;10440213;28;20095;-80
2022/05/26 05:05:29;;;;;;;15.25;12.63;;;;;;;13.32;73.42;100569.63;10446192;28;20044;-78
2022/05/26 05:10:33;;;;;;;15.15;11.60;;;;;;;13.32;74.15;100566.91;10442991;28;20049;-77
2022/05/26 05:15:42;;;;;;;12.68;10.57;;;;;;;13.60;73.22;100575.25;10428757;28;20041;-80
2022/05/26 05:20:46;;;;;;;15.70;12.45;;;;;;;13.87;72.13;100578.13;10458847;28;20098;-80
2022/05/26 05:25:53;;;;;;;13.05;11.25;;;;;;;14.07;72.23;100579.00;10451288;28;20096;-81
2022/05/26 05:31:01;;;;;;;15.15;9.02;;;;;;;14.00;71.54;100594.06;10435183;28;20041;-79
2022/05/26 05:36:08;;;;;;;19.80;11.60;;;;;;;13.81;73.37;100604.84;10442794;28;20131;-80
2022/05/26 05:41:12;;;;;;;9.35;6.93;;;;;;;13.88;72.02;100589.81;10440264;28;20079;-80
2022/05/26 05:46:19;;;;;;;17.25;11.13;;;;;;;14.28;71.49;100599.59;10435895;28;20047;-80
2022/05/26 05:51:22;;;;;;;13.48;9.57;;;;;;;13.94;72.36;100606.28;10452216;28;20051;-79
2022/05/26 05:56:26;;;;;;;13.70;9.57;;;;;;;14.16;71.76;100625.91;10437302;28;20041;-81
2022/05/26 06:01:29;;;;;;;13.32;9.38;;;;;;;14.35;71.50;100611.56;10442616;28;20468;-79
2022/05/26 06:06:36;;;;;;;12.48;8.85;;;;;;;14.52;70.74;100615.41;10431448;28;20156;-77
2022/05/26 06:11:41;;;;;;;16.65;9.73;;;;;;;14.56;71.45;100606.00;10444628;28;20049;-82
2022/05/26 06:16:45;;;;;;;12.73;9.40;;;;;;;15.34;68.55;100620.16;10424687;28;20060;-79
2022/05/26 06:21:48;;;;;;;13.63;10.05;;;;;;;15.09;69.42;100618.13;10438817;28;21191;-80
2022/05/26 06:26:52;;;;;;;;;;;;;;;15.39;67.96;100635.97;10462013;28;20091;-79
2022/05/26 06:37:17;;;;;;;13.07;9.30;;;;;;;15.32;67.64;100635.66;10457318;28;20045;-80
2022/05/26 06:42:21;;;;;;;12.98;10.23;;;;;;;15.41;67.83;100639.34;10434009;28;20038;-81
2022/05/26 06:47:27;;;;;;;13.82;9.63;;;;;;;15.47;66.17;100649.59;10431915;28;20128;-81
2022/05/26 06:52:29;;;;;;;19.35;11.00;;;;;;;15.38;66.95;100664.88;10457365;28;20064;-80
2022/05/26 06:57:34;;;;;;;13.85;9.18;;;;;;;15.01;67.38;100659.44;10448277;28;20042;-80
2022/05/26 07:02:38;;;;;;;13.88;9.00;;;;;;;15.89;64.48;100673.44;10450207;28;20041;-81
2022/05/26 07:07:41;;;;;;;17.98;8.93;;;;;;;15.00;66.96;100664.00;10426342;28;20038;-80
2022/05/26 07:12:46;;;;;;;17.00;10.35;;;;;;;15.44;67.01;100674.25;10442560;28;20096;-79
2022/05/26 07:17:49;;;;;;;19.83;10.27;;;;;;;16.05;65.25;100680.91;10451039;28;20425;-80
2022/05/26 07:22:52;;;;;;;17.02;10.20;;;;;;;16.11;62.98;100678.44;10448938;28;20045;-81
2022/05/26 07:27:56;;;;;;;16.00;8.65;;;;;;;15.87;63.04;100699.84;10444540;28;20095;-80
2022/05/26 07:32:59;;;;;;;13.98;8.10;;;;;;;15.60;62.88;100706.94;10425134;28;20034;-79
2022/05/26 07:43:25;;;;;;;10.80;6.18;;;;;;;16.79;57.62;100701.47;10450498;28;20122;-78
2022/05/26 07:48:28;;;;;;;11.93;6.78;;;;;;;20.51;49.91;100694.91;10448771;28;20053;-81
2022/05/26 07:53:31;;;;;;;14.98;6.80;;;;;;;17.89;55.03;100714.34;10439830;28;20045;-83
2022/05/26 07:58:35;;;;;;;13.43;6.82;;;;;;;17.10;56.47;100703.72;10482817;28;20043;-83
2022/05/26 08:03:38;;;;;;;11.38;6.05;;;;;;;17.01;54.95;100719.94;10443185;28;20045;-83
2022/05/26 08:08:41;;;;;;;10.73;5.55;;;;;;;16.51;57.54;100728.69;10456422;28;20099;-82
2022/05/26 08:13:46;;;;;;;10.48;5.60;;;;;;;16.60;57.65;100732.31;10460831;28;20069;-82
2022/05/26 08:18:48;;;;;;;10.20;5.57;;;;;;;17.36;55.35;100734.47;10461907;28;20069;-81
2022/05/26 08:23:53;;;;;;;10.57;5.80;;;;;;;17.65;54.03;100735.97;10458875;28;20045;-82
2022/05/26 08:28:58;;;;;;;11.90;5.20;;;;;;;17.31;54.58;100739.53;10456913;28;20104;-83
2022/05/26 08:34:01;;;;;;;10.77;4.93;;;;;;;18.34;53.32;100742.22;10449454;28;20108;-83
2022/05/26 08:39:05;;;;;;;10.02;5.75;;;;;;;18.65;51.21;100745.16;10446722;28;20095;-83
2022/05/26 08:44:12;;;;;;;11.30;6.07;;;;;;;18.31;53.34;100753.41;10436789;28;20050;-81
2022/05/26 08:49:24;;;;;;;11.85;5.30;;;;;;;19.26;52.92;100751.13;10451895;28;20509;-82
2022/05/26 08:54:31;;;;;;;8.40;4.45;;;;;;;18.51;51.13;100763.00;10457334;28;20048;-82
2022/05/26 08:59:42;;;;;;;8.05;4.22;;;;;;;17.87;50.32;100761.72;10455444;28;20106;-82
2022/05/26 09:04:46;;;;;;;9.35;4.47;;;;;;;17.08;52.52;100770.88;10455105;28;20045;-81
2022/05/26 09:15:19;;;;;;;8.70;4.97;;;;;;;18.08;52.75;100783.94;10444395;28;20068;-80
2022/05/26 09:20:36;;;;;;;8.98;4.82;;;;;;;17.35;52.56;100786.22;10463926;28;20061;-81
2022/05/26 09:25:46;;;;;;;9.50;3.75;;;;;;;17.39;52.68;100787.63;10422712;28;20034;-81
2022/05/26 09:30:50;;;;;;;7.90;3.97;;;;;;;18.29;50.49;100783.50;10457546;28;20517;-81
2022/05/26 09:35:53;;;;;;;11.02;4.60;;;;;;;18.32;50.46;100787.75;10459416;28;20071;-81
2022/05/26 09:41:07;;;;;;;7.72;4.25;;;;;;;18.08;50.69;100796.69;10433844;28;20409;-81
2022/05/26 09:46:16;;;;;;;12.90;4.75;;;;;;;18.14;50.23;100785.16;10453501;28;20040;-82
2022/05/26 09:51:23;;;;;;;6.45;3.58;;;;;;;17.19;52.38;100814.09;10458660;28;20048;-81
2022/05/26 09:56:30;;;;;;;12.10;4.88;;;;;;;18.03;52.25;100810.75;10437676;28;20103;-82
2022/05/26 10:01:43;;;;;;;8.00;3.90;;;;;;;18.94;48.98;100807.28;10465824;28;20040;-81
2022/05/26 10:06:51;;;;;;;8.38;4.07;;;;;;;18.64;49.68;100824.22;10477106;22;20040;-81
2022/05/26 10:12:05;;;;;;;5.10;3.80;;;;;;;16.99;52.05;100827.78;10387039;28;20132;-81
2022/05/26 10:17:19;;;;;;;8.70;4.20;;;;;;;18.19;51.00;100839.03;10367894;28;20044;-78
2022/05/26 10:22:35;;;;;;;7.93;4.00;;;;;;;17.94;50.61;100841.59;10378971;28;20069;-80
2022/05/26 10:27:53;;;;;;;10.75;3.30;;;;;;;18.13;50.92;100833.25;10386790;28;20118;-79
2022/05/26 10:33:16;;;;;;;8.90;4.50;;;;;;;18.38;51.12;100841.50;10389586;28;20052;-79
2022/05/26 10:38:31;;;;;;;9.30;3.50;;;;;;;16.90;53.05;100847.72;10377810;28;20042;-79
2022/05/26 10:43:44;;;;;;;7.30;3.25;;;;;;;16.84;53.57;100853.78;10381973;28;20121;-78
2022/05/26 10:48:58;;;;;;;6.97;4.05;;;;;;;18.04;51.54;100850.50;10390036;28;20617;-79
2022/05/26 10:54:06;;;;;;;7.30;3.45;;;;;;;17.80;49.81;100839.47;10388518;28;20084;-79
2022/05/26 10:59:14;;;;;;;7.13;3.15;;;;;;;18.02;50.78;100838.09;10388640;28;20050;-80
2022/05/26 11:04:25;;;;;;;5.47;3.22;;;;;;;18.66;49.06;100833.91;10399655;28;20384;-80
2022/05/26 11:09:39;;;;;;;6.45;3.38;;;;;;;19.25;47.53;100844.72;10373451;28;20399;-78
2022/05/26 11:20:18;;;;;;;4.80;2.90;;;;;;;17.02;52.55;100849.19;10355609;28;20050;-76
2022/05/26 11:25:26;;;;;;;7.63;3.67;;;;;;;17.24;52.24;100842.47;10353772;28;20053;-76
2022/05/26 11:36:15;;;;;;;;;;;;;;;17.46;52.83;100834.84;10340260;28;20057;-77
2022/05/26 11:41:27;;;;;;;8.75;3.30;;;;;;;18.88;50.14;100832.47;10355463;28;19979;-76
2022/05/26 11:46:55;;;;;;;7.25;2.95;;;;;;;17.66;51.18;100835.47;10364187;28;20089;-76
2022/05/26 11:52:08;;;;;;;6.25;2.88;;;;;;;17.80;51.53;100837.63;10347420;28;20046;-77
2022/05/26 11:57:26;;;;;;;;;;;;;;;19.32;48.90;100843.03;10356032;28;20454;-76
2022/05/26 12:02:32;;;;;;;7.78;2.80;;;;;;;19.87;47.42;100830.56;10360051;28;19929;-77
2022/05/26 12:07:39;;;;;;;11.10;4.18;;;;;;;19.21;48.20;100813.44;10335375;28;20403;-77
2022/05/26 12:12:42;;;;;;;7.50;3.17;;;;;;;18.76;48.98;100817.47;10354058;28;20042;-77
2022/05/26 12:17:48;;;;;;;10.15;3.85;;;;;;;18.41;49.79;100830.28;10355699;28;20050;-78
2022/05/26 12:23:21;;;;;;;7.10;3.45;;;;;;;19.46;47.33;100809.66;10362031;28;20435;-77
2022/05/26 12:28:31;;;;;;;6.75;3.05;;;;;;;20.59;45.64;100813.22;10357604;28;20058;-77
2022/05/26 12:34:11;;;;;;;8.02;2.83;;;;;;;20.47;45.45;100810.91;10339732;28;20487;-77
2022/05/26 12:39:34;;;;;;;7.75;2.78;;;;;;;18.86;48.07;100798.25;10351100;28;20038;-77
2022/05/26 12:45:11;;;;;;;5.30;3.00;;;;;;;17.63;51.41;100814.06;10365523;28;20060;-77
2022/05/26 12:50:18;;;;;;;7.50;3.10;;;;;;;18.29;49.07;100804.38;10353335;28;20077;-78
2022/05/26 12:55:25;;;;;;;7.35;3.22;;;;;;;17.60;51.19;100801.66;10372537;28;20074;-77
2022/05/26 13:00:33;;;;;;;7.47;3.50;;;;;;;17.95;52.03;100802.53;10372230;28;20057;-77
2022/05/26 13:05:40;;;;;;;9.40;4.78;;;;;;;17.35;53.35;100803.34;10352322;28;20054;-77
2022/05/26 13:10:44;;;;;;;6.75;4.30;;;;;;;19.01;50.85;100783.81;10348603;28;20050;-78
2022/05/26 13:15:49;;;;;;;6.18;3.33;;;;;;;19.67;47.86;100779.16;10351019;28;20045;-78
2022/05/26 13:20:56;;;;;;;10.93;4.07;;;;;;;19.59;47.15;100783.78;10349954;28;20049;-78
2022/05/26 13:26:01;;;;;;;9.55;3.10;;;;;;;19.48;47.14;100789.56;10360319;28;20042;-78
2022/05/26 13:36:34;;;;;;;7.18;3.80;;;;;;;18.68;49.05;100787.50;10339249;28;20049;-77
2022/05/26 13:41:39;;;;;;;7.07;4.88;;;;;;;18.20;50.21;100783.63;10356892;28;20096;-78
2022/05/26 13:46:47;;;;;;;8.77;4.47;;;;;;;19.49;47.30;100769.47;10352781;28;20453;-78
2022/05/26 13:51:52;;;;;;;9.20;6.07;;;;;;;19.93;48.11;100788.13;10338585;28;20047;-78
2022/05/26 13:56:58;;;;;;;11.10;5.47;;;;;;;18.66;48.26;100778.66;10337991;28;20113;-77
2022/05/26 14:02:10;;;;;;;9.45;6.20;;;;;;;18.21;50.13;100769.91;10335837;28;20050;-78
2022/05/26 14:07:32;;;;;;;8.43;5.80;;;;;;;17.87;51.54;100769.88;10348152;28;20476;-77
2022/05/26 14:12:35;;;;;;;8.60;5.65;;;;;;;17.97;50.41;100770.66;10352493;28;20046;-77
2022/05/26 14:17:42;;;;;;;12.05;6.40;;;;;;;18.14;50.43;100756.09;10356209;28;20046;-78
2022/05/26 14:22:53;;;;;;;10.52;6.65;;;;;;;17.90;51.01;100753.25;10371157;28;20077;-77
2022/05/26 14:28:01;;;;;;;10.57;6.78;;;;;;;17.91;51.74;100757.69;10351132;28;20038;-77
2022/05/26 14:33:18;;;;;;;12.70;6.88;;;;;;;18.40;50.69;100748.84;10363213;28;20062;-78
2022/05/26 14:38:21;;;;;;;10.27;5.93;;;;;;;18.99;48.81;100744.19;10348806;28;20050;-78
2022/05/26 14:43:34;;;;;;;10.52;5.13;;;;;;;20.36;44.74;100734.09;10355238;28;20112;-78
2022/05/26 14:48:39;;;;;;;8.05;4.50;;;;;;;20.58;43.95;100759.69;10372543;28;20057;-78
2022/05/26 14:59:02;;;;;;;12.85;5.30;;;;;;;18.97;48.40;100727.16;10354288;28;20045;-75
2022/05/26 15:04:07;;;;;;;8.52;6.28;;;;;;;18.90;49.12;100739.75;10359473;28;20042;-77
2022/05/26 15:09:12;;;;;;;11.40;6.50;;;;;;;18.27;49.74;100749.34;10370041;28;20525;-78
2022/05/26 15:14:15;;;;;;;12.30;7.07;;;;;;;18.41;49.70;100731.53;10374816;28;20046;-77
2022/05/26 15:19:22;;;;;;;10.18;6.10;;;;;;;18.42;49.51;100725.91;10368939;28;20045;-78
2022/05/26 15:24:26;;;;;;;8.35;5.97;;;;;;;18.33;48.26;100724.19;10368822;28;20498;-78
2022/05/26 15:29:29;;;;;;;10.30;6.32;;;;;;;17.95;49.91;100731.88;10358858;28;20096;-78
2022/05/26 15:34:34;;;;;;;8.75;5.60;;;;;;;17.54;50.35;100720.81;10355191;28;20483;-78
2022/05/26 15:39:39;;;;;;;9.93;6.00;;;;;;;17.86;50.24;100722.84;10341859;28;20046;-78
2022/05/26 15:44:43;;;;;;;11.90;5.60;;;;;;;18.19;50.17;100717.53;10353583;28;20046;-77
2022/05/26 15:49:49;;;;;;;9.32;5.72;;;;;;;18.48;49.67;100711.63;10353662;28;20400;-78
2022/05/26 15:54:52;;;;;;;8.43;6.40;;;;;;;18.91;48.54;100706.91;10352432;28;20088;-78
2022/05/26 15:59:56;;;;;;;10.00;7.50;;;;;;;18.47;48.43;100717.25;10359200;28;20430;-78
2022/05/26 16:05:00;;;;;;;9.60;6.50;;;;;;;17.94;50.69;100694.84;10346509;28;20046;-77
2022/05/26 16:10:04;;;;;;;9.13;6.05;;;;;;;17.66;50.55;100697.81;10417328;22;20042;-77
2022/05/26 16:15:09;;;;;;;8.80;5.30;;;;;;;17.93;49.78;100684.97;10419882;28;20091;-77
2022/05/26 16:20:14;;;;;;;9.38;5.70;;;;;;;18.48;48.92;100683.59;10433867;28;20045;-77
2022/05/26 16:25:17;;;;;;;8.15;6.25;;;;;;;18.69;48.03;100670.31;10432519;28;20041;-77
2022/05/26 16:30:22;;;;;;;13.60;6.63;;;;;;;18.57;49.44;100663.53;10422741;28;20053;-78
2022/05/26 16:40:49;;;;;;;7.65;5.38;;;;;;;17.74;49.97;100668.94;10422794;28;20037;-78
2022/05/26 16:45:52;;;;;;;8.75;5.43;;;;;;;18.06;50.02;100670.94;10448250;28;20485;-78
2022/05/26 16:50:56;;;;;;;11.65;7.38;;;;;;;18.22;49.30;100668.25;10450366;28;20075;-78
2022/05/26 16:55:59;;;;;;;8.05;5.60;;;;;;;18.31;49.58;100674.56;10446683;28;20040;-78
2022/05/26 17:01:03;;;;;;;8.52;5.25;;;;;;;17.75;50.22;100659.81;10438478;28;20496;-78
2022/05/26 17:06:07;;;;;;;7.72;5.40;;;;;;;18.17;50.04;100669.78;10439444;28;20493;-77
2022/05/26 17:11:10;;;;;;;7.57;5.53;;;;;;;18.09;50.07;100659.75;10444237;28;20099;-78
2022/05/26 17:21:47;;;;;;;10.35;5.55;;;;;;;17.93;51.32;100655.06;10447104;28;20045;-77
2022/05/26 17:26:50;;;;;;;8.85;5.10;;;;;;;17.91;50.74;100651.69;10444688;28;20029;-77
2022/05/26 17:31:53;;;;;;;10.25;5.30;;;;;;;17.93;51.49;100655.94;10431947;28;20037;-77
2022/05/26 17:36:58;;;;;;;10.40;4.90;;;;;;;17.56;52.18;100659.03;10443531;28;20041;-78
2022/05/26 17:42:03;;;;;;;5.90;4.80;;;;;;;17.62;52.04;100666.53;10446924;28;20033;-77
2022/05/26 17:47:07;;;;;;;10.77;5.00;;;;;;;17.83;51.79;100654.41;10444938;28;20048;-78
2022/05/26 17:52:18;;;;;;;7.22;4.70;;;;;;;18.00;51.15;100658.03;10444369;28;20044;-78
2022/05/26 17:57:21;;;;;;;8.43;3.90;;;;;;;17.55;52.20;100653.75;10436409;28;20116;-77
2022/05/26 18:02:26;;;;;;;9.50;4.60;;;;;;;17.91;51.26;100660.69;10415790;28;20045;-78
2022/05/26 18:07:30;;;;;;;7.82;4.13;;;;;;;17.12;53.03;100653.69;10455043;28;20051;-78
2022/05/26 18:12:33;;;;;;;6.72;3.90;;;;;;;17.04;52.84;100640.09;10458668;28;20383;-78
2022/05/26 18:17:36;;;;;;;10.52;3.80;;;;;;;17.16;52.77;100640.69;10446259;28;20089;-78
2022/05/26 18:22:44;;;;;;;7.38;3.38;;;;;;;17.58;51.73;100629.00;10419809;28;86434;-78
2022/05/26 18:27:46;;;;;;;9.77;3.83;;;;;;;17.39;52.16;100628.25;10352354;28;20342;-78
2022/05/26 18:32:49;;;;;;;6.30;3.90;;;;;;;17.07;52.97;100633.47;10356673;28;20041;-78
2022/05/26 18:37:53;;;;;;;8.38;3.67;;;;;;;17.62;52.20;100631.22;10356741;28;20050;-78
2022/05/26 18:42:56;;;;;;;10.85;3.55;;;;;;;17.43;53.09;100621.47;10349963;28;20144;-79
2022/05/26 18:48:06;;;;;;;6.93;3.30;;;;;;;17.33;53.13;100618.03;10346868;28;20046;-78
2022/05/26 18:53:18;;;;;;;9.55;3.55;;;;;;;17.36;53.21;100617.72;10360637;28;20423;-79
2022/05/26 18:58:21;;;;;;;11.48;3.15;;;;;;;17.28;53.13;100624.97;10372567;28;20414;-78
2022/05/26 19:03:27;;;;;;;5.25;3.28;;;;;;;17.29;53.77;100624.81;10364244;28;20054;-79
2022/05/26 19:08:33;;;;;;;8.50;3.45;;;;;;;17.43;53.24;100624.19;10362577;28;20042;-78
2022/05/26 19:13:41;;;;;;;6.50;3.30;;;;;;;17.69;52.82;100615.13;10349630;28;20054;-78
2022/05/26 19:18:43;;;;;;;8.13;3.25;;;;;;;17.41;53.14;100622.66;10342115;28;20054;-78
2022/05/26 19:23:48;;;;;;;7.80;3.38;;;;;;;17.47;53.33;100624.72;10343204;28;20065;-77
2022/05/26 19:28:52;;;;;;;8.65;3.10;;;;;;;17.40;53.70;100620.97;10348390;28;20156;-77
2022/05/26 19:33:56;;;;;;;6.53;3.67;;;;;;;17.47;53.48;100612.00;10355558;28;20078;-78
2022/05/26 19:39:01;;;;;;;6.45;3.10;;;;;;;17.02;54.52;100618.53;10345718;28;20392;-78
2022/05/26 19:44:06;;;;;;;6.90;2.92;;;;;;;16.93;54.68;100621.38;10356685;28;20054;-78
2022/05/26 19:49:10;;;;;;;8.88;3.50;;;;;;;17.32;54.18;100620.91;10370195;28;20072;-78
2022/05/26 19:54:14;;;;;;;4.30;3.00;;;;;;;17.21;54.83;100630.19;10354782;28;20092;-78
2022/05/26 19:59:37;;;;;;;10.82;3.10;;;;;;;16.80;55.34;100630.75;10352018;28;20042;-78
2022/05/26 20:04:40;;;;;;;4.97;2.95;;;;;;;17.20;54.98;100617.66;10343809;28;20050;-78
2022/05/26 20:15:59;;;;;;;7.13;2.92;;;;;;;17.00;55.46;100614.25;10334862;28;20160;-78
2022/05/26 20:21:02;;;;;;;11.18;2.47;;;;;;;17.22;55.02;100629.16;10412011;28;60144;-78
2022/05/26 20:26:05;;;;;;;5.13;2.20;;;;;;;17.08;55.24;100629.75;10433575;28;20095;-78
2022/05/26 20:31:09;;;;;;;6.13;2.40;;;;;;;16.57;57.29;100643.16;10436215;28;20406;-78
2022/05/26 20:36:12;;;;;;;7.72;2.30;;;;;;;16.53;57.46;100648.00;10449675;28;20034;-78
2022/05/26 20:41:15;;;;;;;6.75;2.38;;;;;;;16.43;58.53;100651.81;10445926;28;20045;-78
2022/05/26 20:46:22;;;;;;;8.52;2.55;;;;;;;16.64;58.47;100654.22;10428093;28;20041;-78
2022/05/26 20:51:25;;;;;;;10.45;5.25;;;;;;;16.32;60.18;100667.34;10441740;28;20041;-78
2022/05/26 20:56:31;;;;;;;13.88;6.57;;;;;;;16.05;62.75;100668.22;10445092;28;20033;-78
2022/05/26 21:01:35;;;;;;;15.57;8.20;;;;;;;15.37;68.78;100692.94;10442755;28;20068;-78
2022/05/26 21:06:38;;;;;;;24.98;14.25;;;;;;;14.42;76.20;100692.94;10452590;28;20069;-78
2022/05/26 21:11:47;;;;;;;23.88;14.80;;;;;;;14.48;79.14;100673.44;10456538;28;20041;-78
2022/05/26 21:16:52;;;;;;;29.02;16.23;;;;;;;14.10;80.65;100688.63;10457871;28;20140;-79
2022/05/26 21:21:56;;;;;;;25.17;15.27;;;;;;;13.87;81.85;100677.19;10458790;28;20052;-79
2022/05/26 21:26:59;;;;;;;32.65;18.30;;;;;;;14.26;80.97;100671.84;10451376;28;20041;-79
2022/05/26 21:32:04;;;;;;;24.75;18.60;;;;;;;14.12;81.05;100673.09;10459802;28;20047;-79
2022/05/26 21:37:07;;;;;;;26.27;17.38;;;;;;;14.42;79.69;100666.75;10495573;28;20052;-77
2022/05/26 21:42:12;;;;;;;30.05;17.27;;;;;;;14.24;80.23;100671.16;10471193;28;20132;-78
2022/05/26 21:47:16;;;;;;;20.63;15.48;;;;;;;14.28;79.90;100667.16;10442616;28;20056;-76
2022/05/26 21:52:22;;;;;;;22.83;15.60;;;;;;;14.02;80.36;100665.00;10488554;28;20041;-78
2022/05/26 21:57:25;;;;;;;22.33;11.43;;;;;;;13.85;81.36;100669.25;10454964;28;20448;-79
2022/05/26 22:02:29;;;;;;;22.55;14.23;;;;;;;14.05;81.43;100653.91;10431348;28;20102;-79
2022/05/26 22:12:52;;;;;;;16.17;12.88;;;;;;;14.20;79.60;100637.28;10456942;28;20132;-77
2022/05/26 22:17:57;;;;;;;31.83;12.70;;;;;;;14.15;79.49;100643.09;10450988;28;20120;-78
2022/05/26 22:23:01;;;;;;;24.25;12.57;;;;;;;14.38;78.60;100641.00;10451322;28;20040;-76
2022/05/26 22:28:06;;;;;;;21.75;11.75;;;;;;;14.47;77.89;100640.16;10451184;28;20102;-78
2022/05/26 22:33:11;;;;;;;25.45;11.10;;;;;;;14.62;76.09;100634.28;10443763;28;20140;-78
2022/05/26 22:38:17;;;;;;;14.65;7.95;;;;;;;14.10;78.12;100631.91;10417343;28;20045;-77
2022/05/26 22:43:22;;;;;;;18.75;10.25;;;;;;;14.60;76.20;100629.06;10414726;28;20608;-78
2022/05/26 22:48:26;;;;;;;15.82;10.15;;;;;;;14.62;76.58;100632.47;10450994;28;20075;-77
2022/05/26 22:53:29;;;;;;;17.92;10.60;;;;;;;14.55;77.36;100623.22;10455298;28;20124;-78
2022/05/26 22:58:36;;;;;;;21.38;10.43;;;;;;;13.87;82.11;100621.31;10456104;28;20037;-79
2022/05/26 23:03:41;;;;;;;20.92;12.68;;;;;;;13.97;82.20;100632.16;10457441;28;20135;-78
2022/05/26 23:08:44;;;;;;;22.85;13.48;;;;;;;13.51;85.36;100628.22;10456861;28;20049;-78
2022/05/26 23:13:46;;;;;;;22.13;13.38;;;;;;;13.81;83.60;100621.91;10456004;28;20106;-77
2022/05/26 23:18:51;;;;;;;23.50;13.35;;;;;;;14.01;83.46;100609.25;10434070;28;20042;-78
2022/05/26 23:23:54;;;;;;;23.45;14.93;;;;;;;14.14;82.15;100606.28;10420484;28;20049;-78
2022/05/26 23:28:57;;;;;;;26.30;15.35;;;;;;;14.26;81.68;100604.28;10440294;28;20038;-78
2022/05/26 23:34:01;;;;;;;24.35;12.60;;;;;;;14.01;81.54;100611.13;10427222;28;20045;-78
2022/05/26 23:39:04;;;;;;;18.63;12.63;;;;;;;13.87;82.50;100618.63;10431721;28;20041;-78
2022/05/26 23:44:07;;;;;;;17.25;10.02;;;;;;;13.50;83.05;100623.81;10435990;28;20051;-78
2022/05/26 23:49:11;;;;;;;22.90;12.85;;;;;;;13.01;87.02;100606.56;10422030;28;20037;-77
2022/05/26 23:54:14;;;;;;;19.20;13.27;;;;;;;13.02;87.97;100595.63;10434098;28;20053;-77
2022/05/26 23:59:17;;;;;;;20.50;13.07;;;;;;;13.09;87.76;100606.75;10432696;28;20034;-77
